Time;durP1;ratioP1;P1;durP2;ratioP2;P2;SDS_P1;SDS_P2;PMS_P1;PMS_P2;Temp;Humidity;BMP_temperature;BMP_pressure;BME280_temperature;BME280_humidity;BME280_pressure;Samples;Min_cycle;Max_cycle;Signal;HPM_P1;HPM_P2
2022/05/01 06:37:09;;;;;;;12.65;10.63;;;10.10;99.90;;;;;;5070765;28;20538;-69
2022/05/01 06:39:35;;;;;;;11.85;10.18;;;10.30;99.90;;;;;;5070678;28;20278;-70
2022/05/01 06:42:00;;;;;;;11.55;10.35;;;10.40;99.90;;;;;;5070541;28;20208;-70
2022/05/01 06:44:26;;;;;;;14.23;11.05;;;10.40;99.90;;;;;;5070630;28;20176;-70
2022/05/01 06:46:51;;;;;;;13.75;10.60;;;10.50;99.90;;;;;;5070475;28;20172;-70
2022/05/01 06:49:17;;;;;;;16.75;10.63;;;10.50;99.90;;;;;;5070519;28;20184;-70
2022/05/01 06:51:42;;;;;;;11.68;10.52;;;10.60;99.90;;;;;;5070480;28;20176;-70
2022/05/01 06:54:10;;;;;;;13.25;10.90;;;10.60;99.90;;;;;;5070421;28;20196;-70
2022/05/01 06:56:35;;;;;;;13.35;10.40;;;10.60;99.90;;;;;;5070302;28;20211;-70
2022/05/01 06:59:02;;;;;;;12.38;10.13;;;10.60;99.90;;;;;;5070363;28;20169;-70
2022/05/01 07:01:27;;;;;;;11.05;10.02;;;10.70;99.90;;;;;;5070236;28;20200;-70
2022/05/01 07:03:53;;;;;;;12.25;10.70;;;10.70;99.90;;;;;;5070255;28;20168;-70
2022/05/01 07:06:19;;;;;;;13.15;10.02;;;10.80;99.90;;;;;;5070148;28;20172;-70
2022/05/01 07:08:44;;;;;;;10.82;9.73;;;10.90;99.90;;;;;;5070122;28;20194;-70
2022/05/01 07:11:10;;;;;;;11.35;10.15;;;10.90;99.90;;;;;;5070103;28;20179;-70
2022/05/01 07:13:36;;;;;;;13.10;9.93;;;10.90;99.90;;;;;;5070012;28;20168;-70
2022/05/01 07:16:02;;;;;;;10.35;9.23;;;11.00;99.90;;;;;;5068496;28;20538;-70
2022/05/01 07:18:27;;;;;;;11.18;9.32;;;10.90;99.90;;;;;;5069877;28;20579;-70
2022/05/01 07:20:53;;;;;;;11.68;10.05;;;11.00;99.90;;;;;;5069890;28;20247;-70
2022/05/01 07:23:21;;;;;;;9.93;8.85;;;11.00;99.90;;;;;;5069829;28;20684;-70
2022/05/01 07:25:47;;;;;;;14.07;8.90;;;11.10;99.90;;;;;;5069733;28;20175;-70
2022/05/01 07:28:13;;;;;;;12.38;8.60;;;11.20;99.90;;;;;;5069723;28;20164;-70
2022/05/01 07:30:39;;;;;;;12.23;7.65;;;11.20;99.90;;;;;;5068354;28;20176;-70
2022/05/01 07:33:04;;;;;;;9.50;8.43;;;11.40;99.90;;;;;;5069657;28;20210;-70
2022/05/01 07:35:30;;;;;;;11.60;8.85;;;11.40;99.90;;;;;;5069306;28;20318;-70
2022/05/01 07:37:56;;;;;;;9.45;8.30;;;11.50;99.90;;;;;;5069476;28;20239;-70
2022/05/01 07:40:24;;;;;;;7.78;7.00;;;11.70;99.90;;;;;;5069318;28;20577;-70
2022/05/01 07:42:53;;;;;;;15.18;7.82;;;11.80;99.90;;;;;;5069326;28;20161;-70
2022/05/01 07:45:19;;;;;;;9.52;6.95;;;11.90;99.90;;;;;;5068099;28;20268;-70
2022/05/01 07:47:44;;;;;;;9.20;7.63;;;11.80;99.90;;;;;;5060385;28;20251;-70
2022/05/01 07:50:10;;;;;;;8.93;8.00;;;11.90;99.90;;;;;;5056109;28;20173;-70
2022/05/01 07:52:36;;;;;;;8.32;6.50;;;11.80;99.90;;;;;;5056049;28;20617;-70
2022/05/01 07:55:03;;;;;;;7.20;6.68;;;11.80;99.90;;;;;;5055939;28;20192;-70
2022/05/01 07:57:29;;;;;;;6.95;6.25;;;11.80;99.90;;;;;;5055988;28;20386;-70
2022/05/01 07:59:55;;;;;;;7.15;6.50;;;11.80;99.90;;;;;;5055864;28;20172;-70
2022/05/01 08:02:21;;;;;;;9.55;6.32;;;11.80;99.90;;;;;;5055898;28;20543;-70
2022/05/01 08:04:48;;;;;;;7.22;6.63;;;11.60;99.90;;;;;;5055790;28;20530;-70
2022/05/01 08:07:15;;;;;;;6.32;5.90;;;11.50;99.90;;;;;;5055785;28;20173;-70
2022/05/01 08:09:41;;;;;;;8.55;7.38;;;11.50;99.90;;;;;;5055729;28;20623;-70
2022/05/01 08:12:07;;;;;;;10.93;6.95;;;11.40;99.90;;;;;;5055637;28;20176;-70
2022/05/01 08:14:32;;;;;;;8.02;6.88;;;11.50;99.90;;;;;;5055628;28;20173;-70
2022/05/01 08:16:58;;;;;;;7.07;6.50;;;11.40;99.90;;;;;;5055447;28;20200;-70
2022/05/01 08:22:08;;;;;;;7.15;6.55;;;11.70;99.90;;;;;;5055811;28;20679;-70
2022/05/01 08:24:34;;;;;;;6.25;5.72;;;11.70;99.90;;;;;;5055465;28;20252;-70
2022/05/01 08:27:07;;;;;;;6.90;6.30;;;11.80;99.90;;;;;;5055433;28;20161;-70
2022/05/01 08:29:38;;;;;;;6.22;5.72;;;11.90;99.90;;;;;;5055356;28;20179;-70
2022/05/01 08:32:05;;;;;;;6.75;6.05;;;12.10;99.90;;;;;;5055311;28;20173;-70
2022/05/01 08:34:31;;;;;;;6.95;6.10;;;12.30;99.90;;;;;;5055142;28;20165;-70
2022/05/01 08:36:56;;;;;;;7.10;6.32;;;12.50;99.90;;;;;;5054977;28;20743;-70
2022/05/01 08:39:22;;;;;;;6.05;5.55;;;12.70;99.90;;;;;;5053808;28;20169;-70
2022/05/01 08:41:48;;;;;;;7.20;5.35;;;12.80;99.90;;;;;;5055030;28;20185;-70
2022/05/01 08:44:14;;;;;;;6.72;5.75;;;13.00;99.90;;;;;;5055026;28;20260;-70
2022/05/01 08:47:01;;;;;;;5.97;5.32;;;13.20;99.90;;;;;;5054934;28;20181;-70
2022/05/01 08:49:31;;;;;;;9.32;5.35;;;13.20;99.90;;;;;;5053569;28;20215;-70
2022/05/01 08:52:00;;;;;;;5.82;5.30;;;13.20;99.90;;;;;;5054892;28;20184;-70
2022/05/01 08:54:28;;;;;;;5.70;5.15;;;13.30;99.90;;;;;;5054896;28;20602;-70
2022/05/01 08:56:54;;;;;;;6.05;4.57;;;13.40;99.90;;;;;;5054900;28;20559;-71
2022/05/01 08:59:20;;;;;;;10.07;5.40;;;13.50;99.90;;;;;;5052510;28;20176;-71
2022/05/01 09:01:47;;;;;;;5.55;5.05;;;13.60;99.90;;;;;;5054712;28;20196;-71
2022/05/01 09:04:14;;;;;;;5.63;5.13;;;13.70;99.90;;;;;;5054680;28;20169;-71
2022/05/01 09:06:45;;;;;;;5.53;5.13;;;13.80;99.90;;;;;;5054574;28;20626;-71
2022/05/01 09:09:21;;;;;;;7.82;6.05;;;13.80;99.90;;;;;;5054584;28;20174;-71
2022/05/01 09:14:35;;;;;;;5.63;5.13;;;13.90;99.90;;;;;;5054783;28;20653;-71
2022/05/01 09:17:21;;;;;;;6.30;5.57;;;13.80;99.90;;;;;;5054370;28;20196;-71
2022/05/01 09:19:53;;;;;;;5.85;5.30;;;13.80;99.90;;;;;;5054319;28;20173;-71
2022/05/01 09:22:20;;;;;;;7.43;6.15;;;13.90;99.90;;;;;;5054385;28;20165;-71
2022/05/01 09:24:52;;;;;;;6.53;5.65;;;14.00;99.90;;;;;;5054272;28;20247;-71
2022/05/01 09:27:27;;;;;;;6.20;5.03;;;14.00;99.90;;;;;;5054204;28;20169;-71
2022/05/01 09:30:16;;;;;;;6.10;5.60;;;14.10;99.90;;;;;;5054226;28;20172;-71
2022/05/01 09:32:42;;;;;;;6.35;5.75;;;14.10;99.90;;;;;;5054193;28;20161;-71
2022/05/01 09:35:12;;;;;;;8.45;4.85;;;14.20;99.90;;;;;;5053833;28;20224;-71
2022/05/01 09:37:38;;;;;;;6.15;5.55;;;14.20;99.90;;;;;;5054064;28;20571;-71
2022/05/01 09:40:04;;;;;;;10.75;5.68;;;14.20;99.90;;;;;;5053854;28;20247;-71
2022/05/01 09:42:34;;;;;;;6.45;5.25;;;14.20;99.90;;;;;;5053895;28;20215;-71
2022/05/01 09:45:14;;;;;;;5.70;5.30;;;14.20;99.90;;;;;;5053889;28;20169;-71
2022/05/01 09:47:44;;;;;;;5.32;5.03;;;14.20;99.90;;;;;;5053984;28;20165;-71
2022/05/01 09:50:12;;;;;;;6.30;5.80;;;14.20;99.90;;;;;;5053773;28;20257;-71
2022/05/01 09:52:54;;;;;;;7.07;5.97;;;14.20;99.90;;;;;;5053834;28;20173;-71
2022/05/01 09:55:20;;;;;;;8.20;5.82;;;14.10;99.90;;;;;;5053675;28;20193;-71
2022/05/01 09:57:46;;;;;;;5.95;5.00;;;14.00;99.90;;;;;;5053750;28;20161;-71
2022/05/01 10:00:12;;;;;;;5.55;5.13;;;13.90;99.90;;;;;;5053630;28;20169;-71
2022/05/01 10:02:38;;;;;;;6.85;6.13;;;13.90;99.90;;;;;;5053590;28;20239;-71
2022/05/01 10:05:07;;;;;;;5.95;5.30;;;14.00;99.90;;;;;;5053521;28;20256;-71
2022/05/01 10:07:38;;;;;;;6.15;5.75;;;14.10;99.90;;;;;;5053416;28;20188;-71
2022/05/01 10:10:10;;;;;;;7.55;5.63;;;14.20;99.90;;;;;;5052064;28;20173;-71
2022/05/01 10:12:43;;;;;;;10.32;5.68;;;14.20;99.90;;;;;;5053507;28;20169;-71
2022/05/01 10:15:10;;;;;;;6.18;5.68;;;14.20;99.90;;;;;;5053244;28;20189;-71
2022/05/01 10:17:38;;;;;;;8.63;6.30;;;14.00;99.90;;;;;;5053467;28;20626;-71
2022/05/01 10:20:04;;;;;;;5.65;5.20;;;13.90;99.90;;;;;;5053353;28;20165;-71
2022/05/01 10:22:31;;;;;;;6.57;6.00;;;13.90;99.90;;;;;;5053387;28;20520;-71
2022/05/01 10:24:57;;;;;;;6.95;6.30;;;13.90;99.90;;;;;;5052305;28;20580;-71
2022/05/01 10:27:38;;;;;;;7.05;6.45;;;14.00;99.90;;;;;;5053266;28;20169;-71
2022/05/01 10:33:09;;;;;;;7.32;6.63;;;14.00;99.90;;;;;;5053261;28;20175;-71
2022/05/01 10:35:35;;;;;;;10.27;6.30;;;14.20;99.90;;;;;;5052914;28;20221;-71
2022/05/01 10:38:10;;;;;;;6.13;5.65;;;14.30;99.90;;;;;;5053128;28;20196;-71
2022/05/01 10:40:55;;;;;;;7.72;6.72;;;14.20;99.90;;;;;;5053072;28;20184;-71
2022/05/01 10:43:25;;;;;;;7.75;6.47;;;14.20;99.90;;;;;;5053210;28;20188;-71
2022/05/01 10:46:02;;;;;;;7.30;6.60;;;14.20;99.90;;;;;;5053170;28;20527;-71
2022/05/01 10:48:28;;;;;;;9.15;6.35;;;14.30;99.90;;;;;;5052993;28;20172;-71
2022/05/01 10:50:54;;;;;;;8.07;6.07;;;14.60;99.90;;;;;;5053032;28;20180;-71
2022/05/01 10:53:20;;;;;;;6.63;6.10;;;14.60;99.90;;;;;;5052817;28;20173;-71
2022/05/01 10:55:51;;;;;;;7.47;5.90;;;14.50;99.90;;;;;;5052851;28;20197;-71
2022/05/01 10:58:26;;;;;;;7.03;6.13;;;14.30;99.90;;;;;;5052992;28;20187;-71
2022/05/01 11:00:56;;;;;;;7.05;6.32;;;14.30;99.90;;;;;;5051658;28;20191;-71
2022/05/01 11:03:24;;;;;;;6.63;6.10;;;14.40;99.90;;;;;;5052920;28;20169;-71
2022/05/01 11:05:54;;;;;;;6.82;6.30;;;14.40;99.90;;;;;;5051641;28;20657;-71
2022/05/01 11:08:23;;;;;;;6.65;6.03;;;14.50;99.90;;;;;;5052937;28;20685;-71
2022/05/01 11:10:50;;;;;;;9.77;6.68;;;14.70;99.90;;;;;;5053011;28;20176;-71
2022/05/01 11:13:17;;;;;;;6.30;5.70;;;14.80;99.90;;;;;;5052779;28;20603;-71
2022/05/01 11:15:49;;;;;;;6.78;6.03;;;14.70;99.90;;;;;;5051355;28;20193;-71
2022/05/01 11:18:14;;;;;;;6.50;5.85;;;14.60;99.90;;;;;;5052771;28;20248;-71
2022/05/01 11:20:40;;;;;;;6.90;6.20;;;14.50;99.90;;;;;;5052812;28;20574;-71
2022/05/01 11:23:29;;;;;;;7.47;5.95;;;14.60;99.90;;;;;;5055055;28;20176;-71
2022/05/01 11:26:15;;;;;;;7.30;6.63;;;14.70;99.90;;;;;;5056375;28;20165;-71
2022/05/01 11:28:45;;;;;;;6.60;6.10;;;14.80;99.90;;;;;;5056524;28;20184;-71
2022/05/01 11:31:36;;;;;;;7.95;6.10;;;14.80;99.90;;;;;;5055214;28;20169;-71
2022/05/01 11:34:16;;;;;;;6.57;6.07;;;14.80;99.90;;;;;;5056353;28;20161;-71
2022/05/01 11:37:05;;;;;;;7.32;6.22;;;14.70;99.90;;;;;;5056107;28;20687;-71
2022/05/01 11:39:46;;;;;;;6.25;5.70;;;14.60;99.90;;;;;;5056374;28;20492;-71
2022/05/01 11:42:27;;;;;;;6.35;5.80;;;14.70;99.90;;;;;;5056262;28;20177;-71
2022/05/01 11:44:56;;;;;;;6.18;5.65;;;14.80;99.90;;;;;;5056168;28;20169;-71
2022/05/01 11:47:24;;;;;;;9.90;7.03;;;14.80;99.90;;;;;;5054872;28;20181;-70
2022/05/01 11:49:50;;;;;;;8.05;7.28;;;14.90;99.90;;;;;;5056112;28;20235;-71
2022/05/01 11:52:17;;;;;;;8.85;7.95;;;15.10;99.90;;;;;;5056033;28;20165;-70
2022/05/01 11:54:55;;;;;;;8.73;7.30;;;15.00;99.90;;;;;;5055952;28;20222;-70
2022/05/01 12:03:03;;;;;;;7.88;7.18;;;14.80;99.90;;;;;;5056205;28;20187;-70
2022/05/01 12:05:40;;;;;;;8.55;7.68;;;14.90;99.90;;;;;;5055787;28;20528;-70
2022/05/01 12:08:06;;;;;;;9.20;6.75;;;15.00;99.90;;;;;;5055801;28;20176;-70
2022/05/01 12:10:31;;;;;;;7.78;7.07;;;15.00;99.90;;;;;;5055742;28;20653;-70
2022/05/01 12:12:57;;;;;;;8.52;6.60;;;15.10;99.90;;;;;;5055618;28;20259;-70
2022/05/01 12:15:24;;;;;;;8.18;7.32;;;15.10;99.90;;;;;;5055552;28;20200;-70
2022/05/01 12:17:50;;;;;;;6.88;6.28;;;15.00;99.90;;;;;;5055532;28;20163;-70
2022/05/01 12:20:16;;;;;;;8.00;7.22;;;15.20;99.90;;;;;;5055457;28;20164;-70
2022/05/01 12:22:43;;;;;;;6.80;6.20;;;15.30;99.90;;;;;;5055417;28;20531;-70
2022/05/01 12:25:11;;;;;;;9.05;7.03;;;15.30;99.90;;;;;;5055353;28;20252;-70
2022/05/01 12:27:41;;;;;;;7.10;6.50;;;15.40;99.90;;;;;;5054084;28;20280;-71
2022/05/01 12:30:09;;;;;;;7.03;6.38;;;15.50;99.90;;;;;;5055345;28;20173;-70
2022/05/01 12:32:35;;;;;;;7.32;6.53;;;15.60;99.90;;;;;;5055156;28;20644;-70
2022/05/01 12:35:05;;;;;;;6.68;6.07;;;15.90;99.90;;;;;;5054952;28;20626;-71
2022/05/01 12:37:34;;;;;;;8.52;6.07;;;16.10;99.90;;;;;;5055206;28;20168;-71
2022/05/01 12:40:04;;;;;;;7.20;6.53;;;16.30;99.90;;;;;;5055108;28;20575;-71
2022/05/01 12:45:46;;;;;;;9.18;6.43;;;16.30;99.90;;;;;;5055096;28;20224;-71
2022/05/01 12:48:14;;;;;;;7.90;6.72;;;16.00;99.90;;;;;;5054860;28;20185;-71
2022/05/01 12:50:42;;;;;;;9.45;6.43;;;16.10;99.90;;;;;;5054872;28;20161;-71
2022/05/01 12:53:22;;;;;;;6.55;6.10;;;16.10;99.90;;;;;;5054782;28;20173;-71
2022/05/01 12:55:47;;;;;;;7.25;6.68;;;16.20;99.90;;;;;;5054611;28;20192;-71
2022/05/01 12:58:13;;;;;;;8.48;6.65;;;16.30;99.90;;;;;;5054737;28;20169;-71
2022/05/01 13:00:44;;;;;;;6.82;6.32;;;16.30;99.90;;;;;;5054729;28;20226;-71
2022/05/01 13:03:28;;;;;;;7.35;6.57;;;16.40;99.90;;;;;;5054614;28;20167;-71
2022/05/01 13:06:17;;;;;;;8.80;5.85;;;16.40;99.90;;;;;;5054525;28;20177;-71
2022/05/01 13:08:52;;;;;;;8.75;6.28;;;16.20;99.90;;;;;;5051617;28;20200;-71
2022/05/01 13:11:23;;;;;;;7.18;6.47;;;16.10;99.90;;;;;;5054447;28;20177;-71
2022/05/01 13:14:01;;;;;;;6.43;5.93;;;16.10;99.90;;;;;;5054419;28;20242;-71
2022/05/01 13:16:30;;;;;;;7.97;6.85;;;16.10;99.90;;;;;;5054201;28;20653;-71
2022/05/01 13:19:01;;;;;;;6.70;6.10;;;16.20;99.90;;;;;;5054226;28;20657;-71
2022/05/01 13:21:29;;;;;;;6.57;5.90;;;16.30;99.90;;;;;;5052929;28;20165;-71
2022/05/01 13:23:58;;;;;;;5.43;5.13;;;16.30;99.90;;;;;;5054244;28;20197;-71
2022/05/01 13:26:24;;;;;;;8.10;6.43;;;16.30;99.90;;;;;;5052800;28;20173;-71
2022/05/01 13:28:50;;;;;;;8.32;6.40;;;16.30;99.90;;;;;;5054177;28;20211;-71
2022/05/01 13:31:16;;;;;;;6.43;5.93;;;16.10;99.90;;;;;;5054093;28;20173;-71
2022/05/01 13:33:42;;;;;;;7.28;6.53;;;16.00;99.90;;;;;;5054079;28;20176;-71
2022/05/01 13:36:09;;;;;;;6.60;6.20;;;16.10;99.90;;;;;;5053786;28;20572;-71
2022/05/01 13:38:35;;;;;;;8.18;5.88;;;16.30;99.90;;;;;;5053923;28;20173;-71
2022/05/01 13:46:29;;;;;;;7.55;6.47;;;16.20;99.90;;;;;;5053640;28;20180;-71
2022/05/01 13:48:57;;;;;;;6.93;6.32;;;15.90;99.90;;;;;;5053719;28;20173;-71
2022/05/01 13:51:23;;;;;;;7.10;6.50;;;15.70;99.90;;;;;;5052387;28;20173;-71
2022/05/01 13:53:49;;;;;;;8.13;5.90;;;15.50;99.90;;;;;;5053676;28;20641;-71
2022/05/01 13:56:16;;;;;;;7.65;5.68;;;15.40;99.90;;;;;;5053542;28;20201;-71
2022/05/01 13:58:42;;;;;;;6.35;5.07;;;15.30;99.90;;;;;;5053867;28;20223;-71
2022/05/01 14:01:08;;;;;;;6.88;6.15;;;15.30;99.90;;;;;;5053549;28;20203;-71
2022/05/01 14:03:34;;;;;;;6.25;5.75;;;15.50;99.90;;;;;;5053506;28;20197;-70
2022/05/01 14:05:59;;;;;;;7.88;6.28;;;15.50;99.90;;;;;;5053553;28;20173;-71
2022/05/01 14:08:25;;;;;;;7.00;6.10;;;15.50;99.90;;;;;;5053429;28;20176;-71
2022/05/01 14:10:50;;;;;;;8.10;5.70;;;15.60;99.90;;;;;;5053430;28;20181;-71
2022/05/01 14:13:16;;;;;;;9.75;6.15;;;15.50;99.90;;;;;;5053342;28;20183;-71
2022/05/01 14:15:42;;;;;;;6.05;5.50;;;15.60;99.90;;;;;;5053246;28;20680;-71
2022/05/01 14:18:09;;;;;;;5.70;5.03;;;15.80;99.90;;;;;;5053260;28;20330;-70
2022/05/01 14:20:34;;;;;;;6.68;5.38;;;15.70;99.90;;;;;;5053700;28;20169;-71
2022/05/01 14:23:02;;;;;;;6.40;5.88;;;15.80;99.90;;;;;;5053224;28;20165;-71
2022/05/01 14:25:28;;;;;;;6.93;6.05;;;15.90;99.90;;;;;;5051909;28;20184;-71
2022/05/01 14:27:53;;;;;;;6.63;6.10;;;16.00;99.90;;;;;;5051938;28;20177;-71
2022/05/01 14:30:19;;;;;;;8.02;6.20;;;16.10;99.90;;;;;;5053142;28;20248;-71
2022/05/01 14:33:18;;;;;;;6.53;5.90;;;16.00;99.90;;;;;;5051835;28;20280;-71
2022/05/01 14:35:50;;;;;;;6.53;5.90;;;16.00;99.90;;;;;;5051137;28;20216;-71
2022/05/01 14:38:42;;;;;;;6.93;5.90;;;16.00;99.90;;;;;;5053113;28;20619;-71
2022/05/01 14:41:13;;;;;;;6.65;6.05;;;15.80;99.90;;;;;;5051718;28;20544;-71
2022/05/01 14:43:40;;;;;;;5.88;5.47;;;15.80;99.90;;;;;;5052963;28;20661;-71
2022/05/01 14:46:08;;;;;;;6.93;6.22;;;15.80;99.90;;;;;;5052798;28;20645;-71
2022/05/01 14:48:40;;;;;;;6.38;5.75;;;15.70;99.90;;;;;;5052829;28;20186;-71
2022/05/01 14:51:08;;;;;;;6.75;6.20;;;15.50;99.90;;;;;;5052846;28;20169;-71
2022/05/01 14:53:35;;;;;;;7.05;6.43;;;15.60;99.90;;;;;;5052802;28;20165;-71
2022/05/01 14:56:02;;;;;;;7.03;6.32;;;15.70;99.90;;;;;;5052722;28;20187;-71
2022/05/01 15:06:45;;;;;;;9.40;6.80;;;15.60;99.90;;;;;;5056636;28;20660;-71
2022/05/01 15:09:12;;;;;;;7.38;6.20;;;15.70;99.90;;;;;;5056746;28;20684;-70
2022/05/01 15:11:38;;;;;;;6.75;6.15;;;15.70;99.90;;;;;;5056657;28;20215;-70
2022/05/01 15:14:04;;;;;;;7.53;6.45;;;15.70;99.90;;;;;;5056675;28;20162;-71
2022/05/01 15:16:42;;;;;;;7.00;6.40;;;15.70;99.90;;;;;;5056592;28;20563;-70
2022/05/01 15:19:39;;;;;;;9.07;7.75;;;15.70;99.90;;;;;;5056543;28;20615;-71
2022/05/01 15:22:30;;;;;;;7.95;6.93;;;15.70;99.90;;;;;;5056545;28;20169;-71
2022/05/01 15:25:13;;;;;;;7.22;6.63;;;15.60;99.90;;;;;;5055168;28;20169;-71
2022/05/01 15:28:03;;;;;;;7.78;7.03;;;15.60;99.90;;;;;;5056389;28;20626;-71
2022/05/01 15:30:35;;;;;;;7.47;6.78;;;15.60;99.90;;;;;;5056502;28;20637;-71
2022/05/01 15:33:17;;;;;;;7.63;7.03;;;15.60;99.90;;;;;;5056414;28;20192;-71
2022/05/01 15:35:43;;;;;;;9.45;7.95;;;15.60;99.90;;;;;;5056064;28;20220;-71
2022/05/01 15:38:37;;;;;;;8.43;7.75;;;15.30;99.90;;;;;;5056176;28;20248;-71
2022/05/01 15:41:11;;;;;;;9.32;7.43;;;15.10;99.90;;;;;;5054848;28;20201;-71
2022/05/01 15:43:39;;;;;;;8.23;7.53;;;15.00;99.90;;;;;;5054912;28;20528;-70
2022/05/01 15:46:21;;;;;;;7.95;7.20;;;14.90;99.90;;;;;;5054805;28;20211;-71
2022/05/01 15:54:27;;;;;;;8.65;7.85;;;14.70;99.90;;;;;;5055992;28;20179;-71
2022/05/01 15:56:55;;;;;;;9.13;7.55;;;14.70;99.90;;;;;;5055741;28;20185;-70
2022/05/01 15:59:22;;;;;;;7.82;7.07;;;14.70;99.90;;;;;;5055867;28;20570;-70
2022/05/01 16:01:49;;;;;;;9.55;6.80;;;14.60;99.90;;;;;;5055828;28;20204;-70
2022/05/01 16:04:15;;;;;;;8.30;7.50;;;14.60;99.90;;;;;;5055769;28;20165;-70
2022/05/01 16:06:42;;;;;;;7.68;7.15;;;14.50;99.90;;;;;;5055712;28;20507;-70
2022/05/01 16:09:15;;;;;;;8.43;7.63;;;14.50;99.90;;;;;;5055215;28;20169;-70
2022/05/01 16:12:00;;;;;;;8.57;7.70;;;14.40;99.90;;;;;;5055650;28;20165;-70
2022/05/01 16:14:31;;;;;;;7.95;7.25;;;14.40;99.90;;;;;;5055615;28;20238;-70
2022/05/01 16:17:15;;;;;;;10.32;8.10;;;14.20;99.90;;;;;;5055461;28;20559;-70
2022/05/01 16:19:40;;;;;;;8.48;7.20;;;14.20;99.90;;;;;;5055435;28;20248;-70
2022/05/01 16:22:15;;;;;;;8.38;7.68;;;14.20;99.90;;;;;;5055442;28;20257;-70
2022/05/01 16:24:45;;;;;;;8.77;8.02;;;14.20;99.90;;;;;;5055396;28;20239;-70
2022/05/01 16:27:29;;;;;;;9.27;8.38;;;14.00;99.90;;;;;;5055347;28;20169;-70
2022/05/01 16:30:04;;;;;;;8.15;7.40;;;14.00;99.90;;;;;;5055297;28;20176;-70
2022/05/01 16:32:39;;;;;;;8.82;7.63;;;14.00;99.90;;;;;;5053956;28;20196;-70
2022/05/01 16:35:09;;;;;;;8.25;7.40;;;13.90;99.90;;;;;;5054843;28;20221;-70
2022/05/01 16:37:47;;;;;;;8.60;7.80;;;13.90;99.90;;;;;;5055083;28;20176;-70
2022/05/01 16:40:15;;;;;;;8.82;7.95;;;13.80;99.90;;;;;;5053795;28;20185;-70
2022/05/01 16:42:40;;;;;;;9.68;7.80;;;13.70;99.90;;;;;;5054942;28;20188;-69
2022/05/01 16:45:07;;;;;;;8.55;7.70;;;13.70;99.90;;;;;;5054943;28;20240;-70
2022/05/01 16:47:34;;;;;;;10.80;9.60;;;13.50;99.90;;;;;;5054885;28;20172;-70
2022/05/01 16:50:00;;;;;;;8.00;7.30;;;13.50;99.90;;;;;;5054872;28;20653;-70
2022/05/01 16:52:30;;;;;;;9.63;8.77;;;13.50;99.90;;;;;;5054826;28;20169;-70
2022/05/01 16:54:57;;;;;;;8.73;7.93;;;13.40;99.90;;;;;;5054771;28;20235;-70
2022/05/01 16:57:24;;;;;;;10.75;8.38;;;13.30;99.90;;;;;;5054649;28;20618;-70
2022/05/01 16:59:53;;;;;;;8.88;7.85;;;13.30;99.90;;;;;;5053431;28;20197;-70
2022/05/01 17:02:24;;;;;;;9.85;8.98;;;13.30;99.90;;;;;;5053290;28;20310;-70
2022/05/01 17:29:00;;;;;;;9.82;8.95;;;13.70;99.90;;;;;;5090784;28;20566;-68
2022/05/01 17:31:28;;;;;;;9.23;8.50;;;12.90;99.90;;;;;;5090758;28;20183;-68
2022/05/01 17:33:58;;;;;;;10.73;8.98;;;12.90;99.90;;;;;;5090681;28;20168;-69
2022/05/01 17:36:24;;;;;;;9.00;8.18;;;12.90;99.90;;;;;;5090671;28;20667;-69
2022/05/01 17:38:53;;;;;;;8.85;7.93;;;12.80;99.90;;;;;;5090549;28;20168;-69
2022/05/01 17:41:21;;;;;;;9.52;8.43;;;12.90;99.90;;;;;;5090509;28;20517;-69
2022/05/01 17:43:49;;;;;;;9.30;8.50;;;12.90;99.90;;;;;;5090406;28;20197;-69
2022/05/01 17:46:16;;;;;;;8.98;8.13;;;12.90;99.90;;;;;;5090327;28;20160;-69
2022/05/01 17:48:46;;;;;;;9.35;8.63;;;12.90;99.90;;;;;;5088936;28;20207;-69
2022/05/01 17:51:19;;;;;;;9.27;8.38;;;13.10;99.90;;;;;;5089040;28;20168;-69
2022/05/01 17:53:46;;;;;;;8.18;7.57;;;13.00;99.90;;;;;;5090359;28;20172;-69
2022/05/01 17:56:12;;;;;;;8.80;8.10;;;13.10;99.90;;;;;;5090292;28;20601;-69
2022/05/01 17:58:39;;;;;;;9.35;8.55;;;13.10;99.90;;;;;;5090249;28;20311;-69
2022/05/01 18:01:20;;;;;;;8.55;7.75;;;13.10;99.90;;;;;;5090703;28;20164;-70
2022/05/01 18:09:57;;;;;;;8.65;7.80;;;13.00;99.90;;;;;;5090004;28;20197;-70
2022/05/01 18:12:43;;;;;;;8.93;8.13;;;12.90;99.90;;;;;;5090010;28;20573;-70
2022/05/01 18:15:20;;;;;;;9.82;8.70;;;12.80;99.90;;;;;;5089918;28;20555;-70
2022/05/01 18:18:21;;;;;;;10.68;8.50;;;12.60;99.90;;;;;;5089890;28;20217;-70
2022/05/01 18:21:01;;;;;;;8.88;7.88;;;12.50;99.90;;;;;;5088811;28;20190;-69
2022/05/01 18:23:50;;;;;;;8.93;8.23;;;12.40;99.90;;;;;;5088513;28;20168;-70
2022/05/01 18:26:40;;;;;;;11.98;8.70;;;12.30;99.90;;;;;;5089778;28;20167;-70
2022/05/01 18:33:07;;;;;;;8.57;7.75;;;12.20;99.90;;;;;;5089327;28;20590;-70
2022/05/01 18:35:38;;;;;;;12.75;8.13;;;12.20;99.90;;;;;;5089587;28;20168;-69
2022/05/01 18:38:31;;;;;;;8.48;7.70;;;12.10;99.90;;;;;;5089070;28;20164;-70
2022/05/01 18:40:59;;;;;;;9.35;8.23;;;12.00;99.90;;;;;;5076021;28;20184;-70
2022/05/01 18:43:27;;;;;;;8.75;7.75;;;11.90;99.90;;;;;;5075799;28;20173;-70
2022/05/01 18:45:57;;;;;;;8.60;7.57;;;11.90;99.90;;;;;;5075844;28;20199;-69
